Accueil
METAR-TAF:

METAR-TAF

Aéroports :

Aéroport de Gênes-Christophe Colomb

Gênes, Italie

latitude: 44-25N, longitude: 008-51E, altitude: 2 m

Observation

Le bulletin a été fait il y a 23 minutes, à 11:20 UTC
Vent 7 kt de nord/nord-ouest, variant entre ouest/nord-ouest et nord-est
Température 13°C
Humidité 24%
Pression 1011 hPa
Visibilité 10 km ou plus
pas de nuages en-dessous de 1500 mètres et pas de cumulonimbus.

METAR: LIMJ 181120Z 34007KT 300V050 CAVOK 13/M07 Q1011

Heure: 12:43 (11:43 UTC)

Prévision

Le bulletin a été fait il y a 43 minutes, à 11:00 UTC
Prévision valable du 18 à 12 UTC au 19 à 12 UTC
Vent 12 kt de nord
Visibilité 10 km ou plus
pas de nuages en-dessous de 1500 mètres et pas de cumulonimbus.
Temporairement
du 18 à 12 UTC au 19 à 12 UTC
Vent 15 kt de nord avec des rafales jusqu'à 25 kt

TAF: LIMJ 181100Z 1812/1912 01012KT CAVOK TEMPO 1812/1912 01015G25KT

Observations et prévisions météorologiques de plus de 4000 aéroports (messages METAR et TAF).

Les stations disponibles sont représentées par des disques jaunes et rouges sur la carte.

Passer la souris dessus pour voir le nom de la station.

Cliquer dessus pour voir les observations et prévisions météorologiques.

Pour changer de carte: cliquez sur les boutons verts avec une croix noire pour zoomer, sur le bouton vert avec un tiret pour effectuer un zoom arrière, ou sur les flèches vertes pour les cartes adjacentes.


METAR-TAF: